createdAt,value
2022-09-04T00:00:11.076Z,8.95
2022-09-04T00:02:52.373Z,9.50
2022-09-04T00:05:43.282Z,9.65
2022-09-04T00:08:42.524Z,10.02
2022-09-04T00:11:18.891Z,10.50
2022-09-04T00:13:58.317Z,10.77
2022-09-04T00:16:26.981Z,10.63
2022-09-04T00:19:13.163Z,10.85
2022-09-04T00:21:55.753Z,10.75
2022-09-04T00:24:53.249Z,11.48
2022-09-04T00:27:30.872Z,10.85
2022-09-04T00:30:13.569Z,11.00
2022-09-04T00:32:51.816Z,10.93
2022-09-04T00:35:32.603Z,11.57
2022-09-04T00:38:24.393Z,11.25
2022-09-04T00:41:31.146Z,11.43
2022-09-04T00:44:19.601Z,11.00
2022-09-04T00:47:14.162Z,10.02
2022-09-04T00:55:13.050Z,9.90
2022-09-04T00:57:48.080Z,10.48
2022-09-04T01:00:18.961Z,11.13
2022-09-04T01:02:54.573Z,11.30
2022-09-04T01:05:40.513Z,10.48
2022-09-04T01:08:27.182Z,11.38
2022-09-04T01:11:13.017Z,10.52
2022-09-04T01:13:50.480Z,11.05
2022-09-04T01:16:34.486Z,10.43
2022-09-04T01:19:23.108Z,10.48
2022-09-04T01:22:30.549Z,10.75
2022-09-04T01:27:42.321Z,9.68
2022-09-04T01:30:14.690Z,11.13
2022-09-04T01:33:01.968Z,10.10
2022-09-04T01:35:40.900Z,11.02
2022-09-04T01:38:28.845Z,9.70
2022-09-04T01:41:00.176Z,10.00
2022-09-04T01:43:27.864Z,10.38
2022-09-04T01:46:27.083Z,11.07
2022-09-04T01:49:27.399Z,10.88
2022-09-04T01:52:18.498Z,10.40
2022-09-04T01:55:07.107Z,10.25
2022-09-04T01:57:48.397Z,10.55
2022-09-04T02:00:22.751Z,11.10
2022-09-04T02:03:04.582Z,10.75
2022-09-04T02:05:53.777Z,11.40
2022-09-04T02:08:21.394Z,10.60
2022-09-04T02:10:54.117Z,10.43
2022-09-04T02:13:40.322Z,10.77
2022-09-04T02:16:33.601Z,10.63
2022-09-04T02:19:15.240Z,10.38
2022-09-04T02:21:56.782Z,11.10
2022-09-04T02:24:52.620Z,10.35
2022-09-04T02:27:43.443Z,10.50
2022-09-04T02:30:13.939Z,10.45
2022-09-04T02:33:06.917Z,10.23
2022-09-04T02:35:42.881Z,10.35
2022-09-04T02:38:27.277Z,10.57
2022-09-04T02:41:15.248Z,10.65
2022-09-04T02:44:17.555Z,11.15
2022-09-04T02:47:22.719Z,10.02
2022-09-04T02:50:02.181Z,10.57
2022-09-04T02:52:57.085Z,10.48
2022-09-04T02:55:50.316Z,10.35
2022-09-04T02:58:57.490Z,10.45
2022-09-04T03:01:36.457Z,10.52
2022-09-04T03:04:13.200Z,11.38
2022-09-04T03:07:03.462Z,10.50
2022-09-04T03:09:46.634Z,10.60
2022-09-04T03:12:38.821Z,10.93
2022-09-04T03:15:27.395Z,11.13
2022-09-04T03:18:25.303Z,10.82
2022-09-04T03:20:58.853Z,11.15
2022-09-04T03:23:44.558Z,12.05
2022-09-04T03:26:19.698Z,11.23
2022-09-04T03:29:06.052Z,11.63
2022-09-04T03:32:13.458Z,11.68
2022-09-04T03:35:01.403Z,11.40
2022-09-04T03:37:39.148Z,11.07
2022-09-04T03:40:33.469Z,11.45
2022-09-04T03:43:25.453Z,11.13
2022-09-04T03:46:18.317Z,11.38
2022-09-04T03:48:56.130Z,11.02
2022-09-04T03:51:38.302Z,11.02
2022-09-04T03:54:52.851Z,11.00
2022-09-04T03:57:44.780Z,11.25
2022-09-04T04:00:21.469Z,10.68
2022-09-04T04:03:04.691Z,11.07
2022-09-04T04:06:02.082Z,10.65
2022-09-04T04:09:14.374Z,11.07
2022-09-04T04:12:13.194Z,11.80
2022-09-04T04:14:52.026Z,11.70
2022-09-04T04:17:20.645Z,11.40
2022-09-04T04:22:33.596Z,10.90
2022-09-04T04:25:06.736Z,11.60
2022-09-04T04:28:00.180Z,11.38
2022-09-04T04:30:36.965Z,11.00
2022-09-04T04:34:03.267Z,11.40
2022-09-04T04:36:45.632Z,10.65
2022-09-04T04:39:36.442Z,11.32
2022-09-04T04:42:22.831Z,10.73
2022-09-04T04:45:14.036Z,11.27
2022-09-04T04:48:14.637Z,10.70
2022-09-04T04:51:07.719Z,11.95
2022-09-04T04:53:57.722Z,10.75
2022-09-04T04:56:46.068Z,10.40
2022-09-04T04:59:23.212Z,10.80
2022-09-04T05:02:19.296Z,10.75
2022-09-04T05:05:16.317Z,10.98
2022-09-04T05:07:43.247Z,11.00
2022-09-04T05:10:29.022Z,10.75
2022-09-04T05:12:59.592Z,11.02
2022-09-04T05:16:09.427Z,10.65
2022-09-04T05:18:52.437Z,10.52
2022-09-04T05:21:44.219Z,10.88
2022-09-04T05:24:15.735Z,11.13
2022-09-04T05:26:56.289Z,11.05
2022-09-04T05:29:34.399Z,11.77
2022-09-04T05:32:16.593Z,11.38
2022-09-04T05:35:06.739Z,11.07
2022-09-04T05:37:55.500Z,10.95
2022-09-04T05:40:43.129Z,10.88
2022-09-04T05:43:15.758Z,11.73
2022-09-04T05:45:58.293Z,11.40
2022-09-04T05:49:02.020Z,11.07
2022-09-04T05:51:47.009Z,10.93
2022-09-04T05:54:36.411Z,11.10
2022-09-04T05:57:45.039Z,12.10
2022-09-04T06:00:22.421Z,11.02
2022-09-04T06:02:58.495Z,11.30
2022-09-04T06:05:50.936Z,11.65
2022-09-04T06:08:32.913Z,11.45
2022-09-04T06:11:25.745Z,11.35
2022-09-04T06:14:27.038Z,11.07
2022-09-04T06:16:59.937Z,11.70
2022-09-04T06:20:01.551Z,11.50
2022-09-04T06:22:53.827Z,11.25
2022-09-04T06:26:06.573Z,11.25
2022-09-04T06:29:05.789Z,11.82
2022-09-04T06:32:06.217Z,11.80
2022-09-04T06:35:11.497Z,11.45
2022-09-04T06:37:53.950Z,11.90
2022-09-04T06:40:33.856Z,12.27
2022-09-04T06:43:31.927Z,11.95
2022-09-04T06:46:04.937Z,11.45
2022-09-04T06:48:57.228Z,11.85
2022-09-04T06:51:56.822Z,11.57
2022-09-04T06:54:32.934Z,11.75
2022-09-04T06:57:29.221Z,11.48
2022-09-04T07:00:09.070Z,11.43
2022-09-04T07:02:57.878Z,11.50
2022-09-04T07:06:18.633Z,12.00
2022-09-04T07:09:20.298Z,11.55
2022-09-04T07:12:03.993Z,11.80
2022-09-04T07:14:49.333Z,10.88
2022-09-04T07:17:42.516Z,11.35
2022-09-04T07:20:50.946Z,11.23
2022-09-04T07:23:46.864Z,11.77
2022-09-04T07:26:28.384Z,11.60
2022-09-04T07:29:29.614Z,10.75
2022-09-04T07:32:29.117Z,10.40
2022-09-04T07:35:23.692Z,11.07
2022-09-04T07:40:34.190Z,10.20
2022-09-04T07:43:21.357Z,10.30
2022-09-04T07:45:58.543Z,10.43
2022-09-04T07:48:41.964Z,10.40
2022-09-04T07:51:14.847Z,10.60
2022-09-04T07:54:11.660Z,10.30
2022-09-04T07:56:59.148Z,9.73
2022-09-04T07:59:28.760Z,9.77
2022-09-04T08:01:58.386Z,9.15
2022-09-04T08:04:34.187Z,9.75
2022-09-04T08:07:11.386Z,10.23
2022-09-04T08:09:41.246Z,10.52
2022-09-04T08:12:30.049Z,10.50
2022-09-04T08:15:20.063Z,10.18
2022-09-04T08:18:02.032Z,8.77
2022-09-04T08:20:50.833Z,9.93
2022-09-04T08:23:24.465Z,9.27
2022-09-04T08:26:16.563Z,10.75
2022-09-04T08:28:57.104Z,10.50
2022-09-04T08:31:43.891Z,10.23
2022-09-04T08:34:48.661Z,9.65
2022-09-04T08:37:41.598Z,10.88
2022-09-04T08:40:20.816Z,9.50
2022-09-04T08:43:06.755Z,10.75
2022-09-04T08:45:44.741Z,10.20
2022-09-04T08:48:44.335Z,9.23
2022-09-04T08:51:14.407Z,10.63
2022-09-04T08:54:11.747Z,10.00
2022-09-04T08:56:50.199Z,10.43
2022-09-04T08:59:53.189Z,9.52
2022-09-04T09:02:41.478Z,10.02
2022-09-04T09:05:42.910Z,11.57
2022-09-04T09:08:45.874Z,9.82
2022-09-04T09:11:24.747Z,10.07
2022-09-04T09:14:12.716Z,9.77
2022-09-04T09:16:44.392Z,9.77
2022-09-04T09:19:37.556Z,9.70
2022-09-04T09:22:29.031Z,9.70
2022-09-04T09:25:14.406Z,9.93
2022-09-04T09:28:26.399Z,9.52
2022-09-04T09:31:47.561Z,10.73
2022-09-04T09:35:01.856Z,9.80
2022-09-04T09:37:54.158Z,8.77
2022-09-04T09:40:21.017Z,8.25
2022-09-04T09:43:09.892Z,9.05
2022-09-04T09:45:55.664Z,8.48
2022-09-04T09:48:47.348Z,8.48
2022-09-04T09:51:38.732Z,8.80
2022-09-04T09:54:37.895Z,8.05
2022-09-04T09:57:33.377Z,7.10
2022-09-04T10:00:07.336Z,7.38
2022-09-04T10:02:43.039Z,7.13
2022-09-04T10:05:35.774Z,7.25
2022-09-04T10:08:23.360Z,6.97
2022-09-04T10:11:08.640Z,6.53
2022-09-04T10:14:12.719Z,6.22
2022-09-04T10:17:00.782Z,5.35
2022-09-04T10:22:17.760Z,5.18
2022-09-04T10:25:15.793Z,5.53
2022-09-04T10:28:01.508Z,5.20
2022-09-04T10:31:00.003Z,5.22
2022-09-04T10:33:42.549Z,4.90
2022-09-04T10:36:46.891Z,4.88
2022-09-04T10:39:53.807Z,4.70
2022-09-04T10:42:45.250Z,4.78
2022-09-04T10:45:32.111Z,4.55
2022-09-04T10:48:28.767Z,4.60
2022-09-04T10:51:23.565Z,4.60
2022-09-04T10:54:02.182Z,4.50
2022-09-04T10:56:52.937Z,4.80
2022-09-04T10:59:31.531Z,4.30
2022-09-04T11:02:35.945Z,4.68
2022-09-04T11:05:27.717Z,4.60
2022-09-04T11:08:24.847Z,4.13
2022-09-04T11:11:09.645Z,4.07
2022-09-04T11:14:14.627Z,4.25
2022-09-04T11:17:13.395Z,4.20
2022-09-04T11:19:56.092Z,3.80
2022-09-04T11:22:34.498Z,3.85
2022-09-04T11:25:32.114Z,3.75
2022-09-04T11:28:01.935Z,3.80
2022-09-04T11:30:53.890Z,3.65
2022-09-04T11:34:14.065Z,3.60
2022-09-04T11:39:31.513Z,3.40
2022-09-04T11:42:13.656Z,3.95
2022-09-04T11:45:05.703Z,4.25
2022-09-04T11:47:56.751Z,3.83
2022-09-04T11:50:45.871Z,3.78
2022-09-04T11:53:37.502Z,3.65
2022-09-04T11:56:22.859Z,3.90
2022-09-04T11:59:26.034Z,4.05
2022-09-04T12:01:55.647Z,4.22
2022-09-04T12:04:50.117Z,3.75
2022-09-04T12:10:14.783Z,3.78
2022-09-04T12:12:42.044Z,3.90
2022-09-04T12:15:14.620Z,4.03
2022-09-04T12:17:57.612Z,3.85
2022-09-04T12:21:00.386Z,4.20
2022-09-04T12:24:04.480Z,4.13
2022-09-04T12:26:51.550Z,4.03
2022-09-04T12:29:53.079Z,3.92
2022-09-04T12:32:45.220Z,3.80
2022-09-04T12:35:50.483Z,3.58
2022-09-04T12:38:39.561Z,3.33
2022-09-04T12:41:16.529Z,3.40
2022-09-04T12:44:18.383Z,3.85
2022-09-04T12:47:00.549Z,3.40
2022-09-04T12:49:42.528Z,3.67
2022-09-04T12:52:32.587Z,3.50
2022-09-04T12:55:25.311Z,3.50
2022-09-04T12:58:06.399Z,3.20
2022-09-04T13:00:45.996Z,3.40
2022-09-04T13:03:58.791Z,3.15
2022-09-04T13:06:59.278Z,3.78
2022-09-04T13:10:09.240Z,3.30
2022-09-04T13:12:52.867Z,2.95
2022-09-04T13:15:41.985Z,2.90
2022-09-04T13:18:12.492Z,2.90
2022-09-04T13:20:40.233Z,2.90
2022-09-04T13:23:46.923Z,2.60
2022-09-04T13:26:42.657Z,2.70
2022-09-04T13:29:36.147Z,3.00
2022-09-04T13:32:23.248Z,2.70
2022-09-04T13:35:09.502Z,2.60
2022-09-04T13:37:55.189Z,2.72
2022-09-04T13:40:47.139Z,2.50
2022-09-04T13:44:11.421Z,2.45
2022-09-04T13:47:02.022Z,2.88
2022-09-04T13:49:40.858Z,2.78
2022-09-04T13:52:14.002Z,2.33
2022-09-04T13:54:46.941Z,2.45
2022-09-04T13:57:18.353Z,2.35
2022-09-04T13:59:49.791Z,2.42
2022-09-04T14:02:25.370Z,2.40
2022-09-04T14:05:20.488Z,2.80
2022-09-04T14:07:51.304Z,2.90
2022-09-04T14:10:50.662Z,2.83
2022-09-04T14:13:55.540Z,2.70
2022-09-04T14:16:24.024Z,2.72
2022-09-04T14:21:42.600Z,2.75
2022-09-04T14:24:34.444Z,2.92
2022-09-04T14:27:27.378Z,2.63
2022-09-04T14:30:07.336Z,2.67
2022-09-04T14:33:18.942Z,2.97
2022-09-04T14:36:02.533Z,3.17
2022-09-04T14:38:41.113Z,3.15
2022-09-04T14:41:20.505Z,2.60
2022-09-04T14:44:07.446Z,2.70
2022-09-04T14:47:07.399Z,2.50
2022-09-04T14:49:42.552Z,2.70
2022-09-04T14:52:28.091Z,2.60
2022-09-04T14:54:58.030Z,2.80
2022-09-04T14:57:31.093Z,2.20
2022-09-04T15:00:10.605Z,2.55
2022-09-04T15:02:55.825Z,2.60
2022-09-04T15:05:24.862Z,2.60
2022-09-04T15:07:53.856Z,2.50
2022-09-04T15:10:24.454Z,2.67
2022-09-04T15:13:31.321Z,2.33
2022-09-04T15:16:11.466Z,2.60
2022-09-04T15:18:57.225Z,2.60
2022-09-04T15:21:35.417Z,2.53
2022-09-04T15:24:10.519Z,2.65
2022-09-04T15:26:46.803Z,2.70
2022-09-04T15:29:28.510Z,2.80
2022-09-04T15:34:27.591Z,2.75
2022-09-04T15:37:07.949Z,2.90
2022-09-04T15:40:04.419Z,2.60
2022-09-04T15:42:36.299Z,2.60
2022-09-04T15:45:21.610Z,2.90
2022-09-04T15:48:08.353Z,2.80
2022-09-04T15:50:40.367Z,2.65
2022-09-04T15:53:26.319Z,2.70
2022-09-04T15:56:23.481Z,2.50
2022-09-04T15:59:22.121Z,2.70
2022-09-04T16:02:00.605Z,2.42
2022-09-04T16:04:44.666Z,2.80
2022-09-04T16:07:23.535Z,2.90
2022-09-04T16:09:56.397Z,3.13
2022-09-04T16:13:05.338Z,2.97
2022-09-04T16:15:37.840Z,2.78
2022-09-04T16:18:34.740Z,3.20
2022-09-04T16:21:05.234Z,2.50
2022-09-04T16:23:38.259Z,2.47
2022-09-04T16:26:17.294Z,2.78
2022-09-04T16:28:51.346Z,2.67
2022-09-04T16:31:32.312Z,2.70
2022-09-04T16:34:22.318Z,2.63
2022-09-04T16:37:01.669Z,2.50
2022-09-04T16:39:55.773Z,2.15
2022-09-04T16:42:41.706Z,2.38
2022-09-04T16:45:21.181Z,2.20
2022-09-04T16:48:34.908Z,2.15
2022-09-04T16:51:25.939Z,2.00
2022-09-04T16:54:05.292Z,1.73
2022-09-04T16:56:42.792Z,1.90
2022-09-04T16:59:17.384Z,1.95
2022-09-04T17:01:58.125Z,2.10
2022-09-04T17:04:42.694Z,1.90
2022-09-04T17:07:31.048Z,1.63
2022-09-04T17:10:23.722Z,1.90
2022-09-04T17:12:59.297Z,1.88
2022-09-04T17:15:36.642Z,1.88
2022-09-04T17:18:09.642Z,1.67
2022-09-04T17:26:28.104Z,1.75
2022-09-04T17:29:07.713Z,1.60
2022-09-04T17:29:19.382Z,1.60
2022-09-04T17:30:14.086Z,1.40
2022-09-04T17:37:13.371Z,1.50
2022-09-04T17:40:34.730Z,1.50
2022-09-04T17:40:46.551Z,1.75
2022-09-04T17:42:00.738Z,1.77
2022-09-04T17:44:39.957Z,1.70
2022-09-04T17:47:16.207Z,1.70
2022-09-04T17:49:49.059Z,1.70
2022-09-04T17:52:36.133Z,1.52
2022-09-04T17:55:13.212Z,1.60
2022-09-04T17:57:48.970Z,1.80
2022-09-04T18:00:24.045Z,1.70
2022-09-04T18:05:33.646Z,1.73
2022-09-04T18:08:13.478Z,1.80
2022-09-04T18:10:52.068Z,2.35
2022-09-04T18:13:36.826Z,2.58
2022-09-04T18:16:19.989Z,3.53
2022-09-04T18:18:54.952Z,3.08
2022-09-04T18:21:45.366Z,3.05
2022-09-04T18:24:21.609Z,3.13
2022-09-04T18:26:51.562Z,3.03
2022-09-04T18:34:39.890Z,3.17
2022-09-04T18:37:24.424Z,3.17
2022-09-04T18:37:24.544Z,2.80
2022-09-04T18:39:09.052Z,2.80
2022-09-04T18:46:48.381Z,2.40
2022-09-04T18:50:36.797Z,2.00
2022-09-04T18:50:43.937Z,1.83
2022-09-04T18:51:25.639Z,2.17
2022-09-04T18:54:27.529Z,1.95
2022-09-04T18:57:00.378Z,1.98
2022-09-04T18:59:43.466Z,1.80
2022-09-04T19:02:29.323Z,1.90
2022-09-04T19:05:10.235Z,1.70
2022-09-04T19:07:43.277Z,1.88
2022-09-04T19:10:28.852Z,1.80
2022-09-04T19:13:12.652Z,1.75
2022-09-04T19:16:05.760Z,2.00
2022-09-04T19:18:34.469Z,1.80
2022-09-04T19:21:14.130Z,1.80
2022-09-04T19:24:13.819Z,1.73
2022-09-04T19:27:01.182Z,1.80
2022-09-04T19:29:42.677Z,2.10
2022-09-04T19:32:49.538Z,2.00
2022-09-04T19:35:42.475Z,1.90
2022-09-04T19:45:55.308Z,1.80
2022-09-04T19:46:03.406Z,1.88
2022-09-04T19:46:13.770Z,1.80
2022-09-04T19:47:53.039Z,2.00
2022-09-04T19:53:18.762Z,1.77
2022-09-04T19:53:42.611Z,2.20
2022-09-04T19:57:31.509Z,2.03
2022-09-04T19:59:46.420Z,1.90
2022-09-04T20:02:32.144Z,1.80
2022-09-04T20:05:05.840Z,1.88
2022-09-04T20:07:41.609Z,1.90
2022-09-04T20:10:30.765Z,1.85
2022-09-04T20:13:20.178Z,1.80
2022-09-04T20:15:57.402Z,1.98
2022-09-04T20:18:39.400Z,1.73
2022-09-04T20:21:07.815Z,1.70
2022-09-04T20:23:43.393Z,1.88
2022-09-04T20:26:19.886Z,2.10
2022-09-04T20:29:01.045Z,2.10
2022-09-04T20:31:40.236Z,2.10
2022-09-04T20:34:25.076Z,1.92
2022-09-04T20:37:19.306Z,2.13
2022-09-04T20:39:59.278Z,2.33
2022-09-04T20:42:45.658Z,1.88
2022-09-04T20:50:05.040Z,2.00
2022-09-04T20:52:46.323Z,1.95
2022-09-04T20:53:00.569Z,1.80
2022-09-04T20:54:47.039Z,2.38
2022-09-04T21:02:09.360Z,1.80
2022-09-04T21:03:12.856Z,1.83
2022-09-04T21:03:34.329Z,2.10
2022-09-04T21:06:26.064Z,1.90
2022-09-04T21:09:11.512Z,2.28
2022-09-04T21:12:07.010Z,1.85
2022-09-04T21:14:45.229Z,2.00
2022-09-04T21:17:52.834Z,2.08
2022-09-04T21:20:28.468Z,2.17
2022-09-04T21:23:07.539Z,1.83
2022-09-04T21:25:40.522Z,1.98
2022-09-04T21:28:10.759Z,2.38
2022-09-04T21:31:06.939Z,1.90
2022-09-04T21:34:16.352Z,2.00
2022-09-04T21:36:57.937Z,2.20
2022-09-04T21:39:49.755Z,1.95
2022-09-04T21:42:23.106Z,2.10
2022-09-04T21:45:01.926Z,2.15
2022-09-04T21:47:46.935Z,2.20
2022-09-04T21:50:26.263Z,2.00
2022-09-04T21:53:24.014Z,1.98
2022-09-04T21:58:06.682Z,2.22
2022-09-04T22:02:38.280Z,2.30
2022-09-04T22:02:57.657Z,2.28
2022-09-04T22:05:41.427Z,2.40
2022-09-04T22:11:56.848Z,2.55
2022-09-04T22:13:41.679Z,2.47
2022-09-04T22:14:30.947Z,2.60
2022-09-04T22:17:06.153Z,3.10
2022-09-04T22:22:37.420Z,2.92
2022-09-04T22:25:47.334Z,3.10
2022-09-04T22:28:32.321Z,2.97
2022-09-04T22:31:14.338Z,3.00
2022-09-04T22:33:48.364Z,3.50
2022-09-04T22:37:11.248Z,3.75
2022-09-04T22:40:22.430Z,3.50
2022-09-04T22:43:01.408Z,3.75
2022-09-04T22:45:46.365Z,3.75
2022-09-04T22:49:11.642Z,3.60
2022-09-04T22:52:00.815Z,4.30
2022-09-04T22:54:50.942Z,4.25
2022-09-04T22:57:58.234Z,4.40
2022-09-04T23:00:25.197Z,5.03
2022-09-04T23:03:08.742Z,4.10
2022-09-04T23:08:55.464Z,4.07
2022-09-04T23:13:58.564Z,4.57
2022-09-04T23:14:03.086Z,4.82
2022-09-04T23:15:57.429Z,5.35
2022-09-04T23:26:31.059Z,4.25
2022-09-04T23:26:34.208Z,3.67
2022-09-04T23:26:49.804Z,4.70
2022-09-04T23:27:54.570Z,4.93
2022-09-04T23:30:25.762Z,4.32
2022-09-04T23:33:06.050Z,4.60
2022-09-04T23:35:51.851Z,4.63
2022-09-04T23:38:45.583Z,4.40
2022-09-04T23:41:31.104Z,4.07
2022-09-04T23:44:25.377Z,4.40
2022-09-04T23:47:05.672Z,4.22
2022-09-04T23:49:38.680Z,4.75
2022-09-04T23:52:34.035Z,4.43
2022-09-04T23:55:49.902Z,4.40
2022-09-04T23:58:54.188Z,4.47
